sensor_id;sensor_type;location;lat;lon;timestamp;temperature;humidity
21602;DHT22;10963;50.934;4.668;2023-11-21T00:01:04;10.60;99.90
21602;DHT22;10963;50.934;4.668;2023-11-21T00:03:31;10.60;99.90
21602;DHT22;10963;50.934;4.668;2023-11-21T00:05:57;10.60;99.90
21602;DHT22;10963;50.934;4.668;2023-11-21T00:08:26;10.70;99.90
21602;DHT22;10963;50.934;4.668;2023-11-21T00:10:52;10.70;99.90
21602;DHT22;10963;50.934;4.668;2023-11-21T00:13:18;10.70;99.90
21602;DHT22;10963;50.934;4.668;2023-11-21T00:15:44;10.70;99.90
21602;DHT22;10963;50.934;4.668;2023-11-21T00:18:10;10.70;99.90
21602;DHT22;10963;50.934;4.668;2023-11-21T00:20:38;10.70;99.90
21602;DHT22;10963;50.934;4.668;2023-11-21T00:23:06;10.70;99.90
21602;DHT22;10963;50.934;4.668;2023-11-21T00:25:32;10.60;99.90
21602;DHT22;10963;50.934;4.668;2023-11-21T00:28:00;10.60;99.90
21602;DHT22;10963;50.934;4.668;2023-11-21T00:30:27;10.50;99.90
21602;DHT22;10963;50.934;4.668;2023-11-21T00:32:56;10.40;99.90
21602;DHT22;10963;50.934;4.668;2023-11-21T00:35:24;10.40;99.90
21602;DHT22;10963;50.934;4.668;2023-11-21T00:37:52;10.40;99.90
21602;DHT22;10963;50.934;4.668;2023-11-21T00:40:18;10.40;99.90
21602;DHT22;10963;50.934;4.668;2023-11-21T00:42:47;10.40;99.90
21602;DHT22;10963;50.934;4.668;2023-11-21T00:45:13;10.40;99.90
21602;DHT22;10963;50.934;4.668;2023-11-21T00:47:39;10.30;99.90
21602;DHT22;10963;50.934;4.668;2023-11-21T00:50:05;10.30;99.90
21602;DHT22;10963;50.934;4.668;2023-11-21T00:52:37;10.20;99.90
21602;DHT22;10963;50.934;4.668;2023-11-21T00:55:04;10.10;99.90
21602;DHT22;10963;50.934;4.668;2023-11-21T00:57:30;10.00;99.90
21602;DHT22;10963;50.934;4.668;2023-11-21T00:59:56;9.90;99.90
21602;DHT22;10963;50.934;4.668;2023-11-21T01:02:22;9.80;99.90
21602;DHT22;10963;50.934;4.668;2023-11-21T01:04:50;9.80;99.90
21602;DHT22;10963;50.934;4.668;2023-11-21T01:07:16;9.70;99.90
21602;DHT22;10963;50.934;4.668;2023-11-21T01:09:41;9.70;99.90
21602;DHT22;10963;50.934;4.668;2023-11-21T01:12:07;9.60;99.90
21602;DHT22;10963;50.934;4.668;2023-11-21T01:14:35;9.60;99.90
21602;DHT22;10963;50.934;4.668;2023-11-21T01:17:04;9.70;99.90
21602;DHT22;10963;50.934;4.668;2023-11-21T01:19:35;9.70;99.90
21602;DHT22;10963;50.934;4.668;2023-11-21T01:22:01;9.70;99.90
21602;DHT22;10963;50.934;4.668;2023-11-21T01:24:26;9.80;99.90
21602;DHT22;10963;50.934;4.668;2023-11-21T01:26:52;9.80;99.90
21602;DHT22;10963;50.934;4.668;2023-11-21T01:29:18;9.80;99.90
21602;DHT22;10963;50.934;4.668;2023-11-21T01:31:43;9.80;99.90
21602;DHT22;10963;50.934;4.668;2023-11-21T01:34:11;9.80;99.90
21602;DHT22;10963;50.934;4.668;2023-11-21T01:36:39;9.90;99.90
21602;DHT22;10963;50.934;4.668;2023-11-21T01:39:07;9.90;99.90
21602;DHT22;10963;50.934;4.668;2023-11-21T01:41:36;9.90;99.90
21602;DHT22;10963;50.934;4.668;2023-11-21T01:44:04;9.90;99.90
21602;DHT22;10963;50.934;4.668;2023-11-21T01:46:35;10.00;99.90
21602;DHT22;10963;50.934;4.668;2023-11-21T01:49:01;10.00;99.90
21602;DHT22;10963;50.934;4.668;2023-11-21T01:51:27;10.10;99.90
21602;DHT22;10963;50.934;4.668;2023-11-21T01:53:53;10.10;99.90
21602;DHT22;10963;50.934;4.668;2023-11-21T01:56:18;10.10;99.90
21602;DHT22;10963;50.934;4.668;2023-11-21T01:58:44;10.10;99.90
21602;DHT22;10963;50.934;4.668;2023-11-21T02:01:13;10.10;99.90
21602;DHT22;10963;50.934;4.668;2023-11-21T02:03:42;10.10;99.90
21602;DHT22;10963;50.934;4.668;2023-11-21T02:06:10;10.00;99.90
21602;DHT22;10963;50.934;4.668;2023-11-21T02:08:40;10.00;99.90
21602;DHT22;10963;50.934;4.668;2023-11-21T02:11:09;9.90;99.90
21602;DHT22;10963;50.934;4.668;2023-11-21T02:13:38;9.90;99.90
21602;DHT22;10963;50.934;4.668;2023-11-21T02:16:09;9.90;99.90
21602;DHT22;10963;50.934;4.668;2023-11-21T02:18:36;10.00;99.90
21602;DHT22;10963;50.934;4.668;2023-11-21T02:21:04;10.10;99.90
21602;DHT22;10963;50.934;4.668;2023-11-21T02:23:30;10.20;99.90
21602;DHT22;10963;50.934;4.668;2023-11-21T02:25:56;10.20;99.90
21602;DHT22;10963;50.934;4.668;2023-11-21T02:28:22;10.20;99.90
21602;DHT22;10963;50.934;4.668;2023-11-21T02:30:52;10.20;99.90
21602;DHT22;10963;50.934;4.668;2023-11-21T02:33:22;10.20;99.90
21602;DHT22;10963;50.934;4.668;2023-11-21T02:35:52;10.30;99.90
21602;DHT22;10963;50.934;4.668;2023-11-21T02:38:21;10.30;99.90
21602;DHT22;10963;50.934;4.668;2023-11-21T02:40:49;10.40;99.90
21602;DHT22;10963;50.934;4.668;2023-11-21T02:43:17;10.30;99.90
21602;DHT22;10963;50.934;4.668;2023-11-21T02:45:43;10.20;99.90
21602;DHT22;10963;50.934;4.668;2023-11-21T02:48:11;10.20;99.90
21602;DHT22;10963;50.934;4.668;2023-11-21T02:50:37;10.20;99.90
21602;DHT22;10963;50.934;4.668;2023-11-21T02:53:03;10.10;99.90
21602;DHT22;10963;50.934;4.668;2023-11-21T02:55:31;10.10;99.90
21602;DHT22;10963;50.934;4.668;2023-11-21T02:58:03;10.10;99.90
21602;DHT22;10963;50.934;4.668;2023-11-21T03:00:33;10.20;99.90
21602;DHT22;10963;50.934;4.668;2023-11-21T03:02:59;10.20;99.90
21602;DHT22;10963;50.934;4.668;2023-11-21T03:05:28;10.20;99.90
21602;DHT22;10963;50.934;4.668;2023-11-21T03:07:54;10.20;99.90
21602;DHT22;10963;50.934;4.668;2023-11-21T03:10:20;10.20;99.90
21602;DHT22;10963;50.934;4.668;2023-11-21T03:12:46;10.20;99.90
21602;DHT22;10963;50.934;4.668;2023-11-21T03:15:12;10.20;99.90
21602;DHT22;10963;50.934;4.668;2023-11-21T03:17:37;10.30;99.90
21602;DHT22;10963;50.934;4.668;2023-11-21T03:20:06;10.30;99.90
21602;DHT22;10963;50.934;4.668;2023-11-21T03:22:36;10.30;99.90
21602;DHT22;10963;50.934;4.668;2023-11-21T03:25:02;10.40;99.90
21602;DHT22;10963;50.934;4.668;2023-11-21T03:27:33;10.40;99.90
21602;DHT22;10963;50.934;4.668;2023-11-21T03:30:01;10.40;99.90
21602;DHT22;10963;50.934;4.668;2023-11-21T03:32:31;10.40;99.90
21602;DHT22;10963;50.934;4.668;2023-11-21T03:34:58;10.40;99.90
21602;DHT22;10963;50.934;4.668;2023-11-21T03:37:24;10.40;99.90
21602;DHT22;10963;50.934;4.668;2023-11-21T03:39:50;10.40;99.90
21602;DHT22;10963;50.934;4.668;2023-11-21T03:42:21;10.30;99.90
21602;DHT22;10963;50.934;4.668;2023-11-21T03:44:46;10.40;99.90
21602;DHT22;10963;50.934;4.668;2023-11-21T03:47:12;10.50;99.90
21602;DHT22;10963;50.934;4.668;2023-11-21T03:49:38;10.50;99.90
21602;DHT22;10963;50.934;4.668;2023-11-21T03:52:05;10.40;99.90
21602;DHT22;10963;50.934;4.668;2023-11-21T03:54:33;10.50;99.90
21602;DHT22;10963;50.934;4.668;2023-11-21T03:56:59;10.50;99.90
21602;DHT22;10963;50.934;4.668;2023-11-21T03:59:25;10.40;99.90
21602;DHT22;10963;50.934;4.668;2023-11-21T04:01:51;10.40;99.90
21602;DHT22;10963;50.934;4.668;2023-11-21T04:04:19;10.50;99.90
21602;DHT22;10963;50.934;4.668;2023-11-21T04:06:45;10.50;99.90
21602;DHT22;10963;50.934;4.668;2023-11-21T04:09:11;10.50;99.90
21602;DHT22;10963;50.934;4.668;2023-11-21T04:11:36;10.50;99.90
21602;DHT22;10963;50.934;4.668;2023-11-21T04:14:02;10.50;99.90
21602;DHT22;10963;50.934;4.668;2023-11-21T04:16:28;10.60;99.90
21602;DHT22;10963;50.934;4.668;2023-11-21T04:18:53;10.60;99.90
21602;DHT22;10963;50.934;4.668;2023-11-21T04:21:19;10.60;99.90
21602;DHT22;10963;50.934;4.668;2023-11-21T04:23:45;10.70;99.90
21602;DHT22;10963;50.934;4.668;2023-11-21T04:26:14;10.70;99.90
21602;DHT22;10963;50.934;4.668;2023-11-21T04:28:40;10.70;99.90
21602;DHT22;10963;50.934;4.668;2023-11-21T04:31:08;10.70;99.90
21602;DHT22;10963;50.934;4.668;2023-11-21T04:33:33;10.70;99.90
21602;DHT22;10963;50.934;4.668;2023-11-21T04:36:02;10.70;99.90
21602;DHT22;10963;50.934;4.668;2023-11-21T04:38:27;10.70;99.90
21602;DHT22;10963;50.934;4.668;2023-11-21T04:40:53;10.70;99.90
21602;DHT22;10963;50.934;4.668;2023-11-21T04:43:21;10.70;99.90
21602;DHT22;10963;50.934;4.668;2023-11-21T04:45:47;10.70;99.90
21602;DHT22;10963;50.934;4.668;2023-11-21T04:48:12;10.70;99.90
21602;DHT22;10963;50.934;4.668;2023-11-21T04:50:39;10.80;99.90
21602;DHT22;10963;50.934;4.668;2023-11-21T04:53:05;10.70;99.90
21602;DHT22;10963;50.934;4.668;2023-11-21T04:55:33;10.70;99.90
21602;DHT22;10963;50.934;4.668;2023-11-21T04:57:58;10.70;99.90
21602;DHT22;10963;50.934;4.668;2023-11-21T05:00:24;10.70;99.90
21602;DHT22;10963;50.934;4.668;2023-11-21T05:02:50;10.70;99.90
21602;DHT22;10963;50.934;4.668;2023-11-21T05:05:16;10.80;99.90
21602;DHT22;10963;50.934;4.668;2023-11-21T05:07:41;10.70;99.90
21602;DHT22;10963;50.934;4.668;2023-11-21T05:10:08;10.80;99.90
21602;DHT22;10963;50.934;4.668;2023-11-21T05:12:37;10.70;99.90
21602;DHT22;10963;50.934;4.668;2023-11-21T05:15:07;10.80;99.90
21602;DHT22;10963;50.934;4.668;2023-11-21T05:17:39;10.80;99.90
21602;DHT22;10963;50.934;4.668;2023-11-21T05:20:08;10.70;99.90
21602;DHT22;10963;50.934;4.668;2023-11-21T05:22:35;10.80;99.90
21602;DHT22;10963;50.934;4.668;2023-11-21T05:25:02;10.70;99.90
21602;DHT22;10963;50.934;4.668;2023-11-21T05:27:29;10.60;99.90
21602;DHT22;10963;50.934;4.668;2023-11-21T05:29:57;10.80;99.90
21602;DHT22;10963;50.934;4.668;2023-11-21T05:32:24;10.80;99.90
21602;DHT22;10963;50.934;4.668;2023-11-21T05:34:50;10.80;99.90
21602;DHT22;10963;50.934;4.668;2023-11-21T05:37:16;10.80;99.90
21602;DHT22;10963;50.934;4.668;2023-11-21T05:39:45;10.70;99.90
21602;DHT22;10963;50.934;4.668;2023-11-21T05:42:13;10.80;99.90
21602;DHT22;10963;50.934;4.668;2023-11-21T05:44:42;10.80;99.90
21602;DHT22;10963;50.934;4.668;2023-11-21T05:47:11;10.80;99.90
21602;DHT22;10963;50.934;4.668;2023-11-21T05:49:39;10.80;99.90
21602;DHT22;10963;50.934;4.668;2023-11-21T05:52:05;10.90;99.90
21602;DHT22;10963;50.934;4.668;2023-11-21T05:54:32;10.80;99.90
21602;DHT22;10963;50.934;4.668;2023-11-21T05:57:00;10.80;99.90
21602;DHT22;10963;50.934;4.668;2023-11-21T05:59:30;10.80;99.90
21602;DHT22;10963;50.934;4.668;2023-11-21T06:01:56;10.80;99.90
21602;DHT22;10963;50.934;4.668;2023-11-21T06:04:24;10.90;99.90
21602;DHT22;10963;50.934;4.668;2023-11-21T06:06:54;10.90;99.90
21602;DHT22;10963;50.934;4.668;2023-11-21T06:09:22;10.90;99.90
21602;DHT22;10963;50.934;4.668;2023-11-21T06:11:55;10.90;99.90
21602;DHT22;10963;50.934;4.668;2023-11-21T06:14:21;10.90;99.90
21602;DHT22;10963;50.934;4.668;2023-11-21T06:16:47;10.90;99.90
21602;DHT22;10963;50.934;4.668;2023-11-21T06:19:13;10.90;99.90
21602;DHT22;10963;50.934;4.668;2023-11-21T06:21:41;10.90;99.90
21602;DHT22;10963;50.934;4.668;2023-11-21T06:24:13;10.90;99.90
21602;DHT22;10963;50.934;4.668;2023-11-21T06:26:41;10.90;99.90
21602;DHT22;10963;50.934;4.668;2023-11-21T06:29:06;10.90;99.90
21602;DHT22;10963;50.934;4.668;2023-11-21T06:31:32;10.90;99.90
21602;DHT22;10963;50.934;4.668;2023-11-21T06:34:00;10.90;99.90
21602;DHT22;10963;50.934;4.668;2023-11-21T06:36:26;10.80;99.90
21602;DHT22;10963;50.934;4.668;2023-11-21T06:38:54;10.80;99.90
21602;DHT22;10963;50.934;4.668;2023-11-21T06:41:20;10.80;99.90
21602;DHT22;10963;50.934;4.668;2023-11-21T06:43:49;10.80;99.90
21602;DHT22;10963;50.934;4.668;2023-11-21T06:46:21;10.90;99.90
21602;DHT22;10963;50.934;4.668;2023-11-21T06:48:52;10.90;99.90
21602;DHT22;10963;50.934;4.668;2023-11-21T06:51:19;11.00;99.90
21602;DHT22;10963;50.934;4.668;2023-11-21T06:53:45;11.00;99.90
21602;DHT22;10963;50.934;4.668;2023-11-21T06:56:20;11.00;99.90
21602;DHT22;10963;50.934;4.668;2023-11-21T06:58:46;11.00;99.90
21602;DHT22;10963;50.934;4.668;2023-11-21T07:01:13;11.00;99.90
21602;DHT22;10963;50.934;4.668;2023-11-21T07:03:39;10.90;99.90
21602;DHT22;10963;50.934;4.668;2023-11-21T07:06:08;11.00;99.90
21602;DHT22;10963;50.934;4.668;2023-11-21T07:08:39;10.90;99.90
21602;DHT22;10963;50.934;4.668;2023-11-21T07:11:07;10.90;99.90
21602;DHT22;10963;50.934;4.668;2023-11-21T07:13:33;10.80;99.90
21602;DHT22;10963;50.934;4.668;2023-11-21T07:16:01;10.80;99.90
21602;DHT22;10963;50.934;4.668;2023-11-21T07:18:27;10.90;99.90
21602;DHT22;10963;50.934;4.668;2023-11-21T07:20:55;10.90;99.90
21602;DHT22;10963;50.934;4.668;2023-11-21T07:23:21;11.00;99.90
21602;DHT22;10963;50.934;4.668;2023-11-21T07:25:50;11.00;99.90
21602;DHT22;10963;50.934;4.668;2023-11-21T07:28:18;11.00;99.90
21602;DHT22;10963;50.934;4.668;2023-11-21T07:30:44;11.00;99.90
21602;DHT22;10963;50.934;4.668;2023-11-21T07:33:10;11.00;99.90
21602;DHT22;10963;50.934;4.668;2023-11-21T07:35:36;11.10;99.90
21602;DHT22;10963;50.934;4.668;2023-11-21T07:38:02;11.20;99.90
21602;DHT22;10963;50.934;4.668;2023-11-21T07:40:29;11.20;99.90
21602;DHT22;10963;50.934;4.668;2023-11-21T07:42:55;11.20;99.90
21602;DHT22;10963;50.934;4.668;2023-11-21T07:45:23;11.20;99.90
21602;DHT22;10963;50.934;4.668;2023-11-21T07:47:48;11.20;99.90
21602;DHT22;10963;50.934;4.668;2023-11-21T07:50:14;11.20;99.90
21602;DHT22;10963;50.934;4.668;2023-11-21T07:52:40;11.20;99.90
21602;DHT22;10963;50.934;4.668;2023-11-21T07:55:06;11.20;99.90
21602;DHT22;10963;50.934;4.668;2023-11-21T07:57:35;11.20;99.90
21602;DHT22;10963;50.934;4.668;2023-11-21T08:00:04;11.20;99.90
21602;DHT22;10963;50.934;4.668;2023-11-21T08:02:34;11.20;99.90
21602;DHT22;10963;50.934;4.668;2023-11-21T08:05:00;11.20;99.90
21602;DHT22;10963;50.934;4.668;2023-11-21T08:07:28;11.30;99.90
21602;DHT22;10963;50.934;4.668;2023-11-21T08:09:56;11.40;99.90
21602;DHT22;10963;50.934;4.668;2023-11-21T08:12:22;11.40;99.90
21602;DHT22;10963;50.934;4.668;2023-11-21T08:14:51;11.40;99.90
21602;DHT22;10963;50.934;4.668;2023-11-21T08:17:19;11.50;99.90
21602;DHT22;10963;50.934;4.668;2023-11-21T08:19:46;11.50;99.90
21602;DHT22;10963;50.934;4.668;2023-11-21T08:22:15;11.50;99.90
21602;DHT22;10963;50.934;4.668;2023-11-21T08:24:46;11.50;99.90
21602;DHT22;10963;50.934;4.668;2023-11-21T08:27:12;11.50;99.90
21602;DHT22;10963;50.934;4.668;2023-11-21T08:29:41;11.60;99.90
21602;DHT22;10963;50.934;4.668;2023-11-21T08:32:07;11.60;99.90
21602;DHT22;10963;50.934;4.668;2023-11-21T08:34:33;11.50;99.90
21602;DHT22;10963;50.934;4.668;2023-11-21T08:36:59;11.60;99.90
21602;DHT22;10963;50.934;4.668;2023-11-21T08:39:25;11.70;99.90
21602;DHT22;10963;50.934;4.668;2023-11-21T08:41:54;11.70;99.90
21602;DHT22;10963;50.934;4.668;2023-11-21T08:44:20;11.70;99.90
21602;DHT22;10963;50.934;4.668;2023-11-21T08:46:46;11.80;99.90
21602;DHT22;10963;50.934;4.668;2023-11-21T08:49:15;11.80;99.90
21602;DHT22;10963;50.934;4.668;2023-11-21T08:51:44;11.70;99.90
21602;DHT22;10963;50.934;4.668;2023-11-21T08:54:11;11.70;99.90
21602;DHT22;10963;50.934;4.668;2023-11-21T08:56:39;11.80;99.90
21602;DHT22;10963;50.934;4.668;2023-11-21T08:59:05;11.80;99.90
21602;DHT22;10963;50.934;4.668;2023-11-21T09:01:33;11.80;99.90
21602;DHT22;10963;50.934;4.668;2023-11-21T09:03:58;11.90;99.90
21602;DHT22;10963;50.934;4.668;2023-11-21T09:06:28;12.10;99.90
21602;DHT22;10963;50.934;4.668;2023-11-21T09:08:55;12.20;99.90
21602;DHT22;10963;50.934;4.668;2023-11-21T09:11:21;12.20;99.90
21602;DHT22;10963;50.934;4.668;2023-11-21T09:13:47;12.20;99.90
21602;DHT22;10963;50.934;4.668;2023-11-21T09:16:16;12.20;99.90
21602;DHT22;10963;50.934;4.668;2023-11-21T09:18:42;12.20;99.90
21602;DHT22;10963;50.934;4.668;2023-11-21T09:21:10;12.20;99.90
21602;DHT22;10963;50.934;4.668;2023-11-21T09:23:38;12.20;99.90
21602;DHT22;10963;50.934;4.668;2023-11-21T09:26:06;12.20;99.90
21602;DHT22;10963;50.934;4.668;2023-11-21T09:28:32;12.10;99.90
21602;DHT22;10963;50.934;4.668;2023-11-21T09:30:58;12.20;99.90
21602;DHT22;10963;50.934;4.668;2023-11-21T09:33:24;12.20;99.90
21602;DHT22;10963;50.934;4.668;2023-11-21T09:35:53;12.10;99.90
21602;DHT22;10963;50.934;4.668;2023-11-21T09:38:21;12.10;99.90
21602;DHT22;10963;50.934;4.668;2023-11-21T09:40:49;12.20;99.90
21602;DHT22;10963;50.934;4.668;2023-11-21T09:43:18;12.30;99.90
21602;DHT22;10963;50.934;4.668;2023-11-21T09:45:53;12.40;99.90
21602;DHT22;10963;50.934;4.668;2023-11-21T09:48:20;12.50;99.90
21602;DHT22;10963;50.934;4.668;2023-11-21T09:50:48;12.60;99.90
21602;DHT22;10963;50.934;4.668;2023-11-21T09:53:25;12.70;99.90
21602;DHT22;10963;50.934;4.668;2023-11-21T09:55:55;12.70;99.90
21602;DHT22;10963;50.934;4.668;2023-11-21T09:58:22;12.70;99.90
21602;DHT22;10963;50.934;4.668;2023-11-21T10:00:53;12.80;99.90
21602;DHT22;10963;50.934;4.668;2023-11-21T10:03:22;12.70;99.90
21602;DHT22;10963;50.934;4.668;2023-11-21T10:05:50;12.60;99.90
21602;DHT22;10963;50.934;4.668;2023-11-21T10:08:16;12.50;99.90
21602;DHT22;10963;50.934;4.668;2023-11-21T10:10:44;12.40;99.90
21602;DHT22;10963;50.934;4.668;2023-11-21T10:13:12;12.10;99.90
21602;DHT22;10963;50.934;4.668;2023-11-21T10:15:38;12.10;99.90
21602;DHT22;10963;50.934;4.668;2023-11-21T10:18:07;12.10;99.90
21602;DHT22;10963;50.934;4.668;2023-11-21T10:20:33;12.10;99.90
21602;DHT22;10963;50.934;4.668;2023-11-21T10:23:00;12.20;99.90
21602;DHT22;10963;50.934;4.668;2023-11-21T10:25:30;12.30;99.90
21602;DHT22;10963;50.934;4.668;2023-11-21T10:28:03;12.40;99.90
21602;DHT22;10963;50.934;4.668;2023-11-21T10:30:37;12.30;99.90
21602;DHT22;10963;50.934;4.668;2023-11-21T10:33:07;12.20;99.90
21602;DHT22;10963;50.934;4.668;2023-11-21T10:38:20;12.40;99.90
21602;DHT22;10963;50.934;4.668;2023-11-21T10:40:49;12.40;99.90
21602;DHT22;10963;50.934;4.668;2023-11-21T10:43:15;12.40;99.90
21602;DHT22;10963;50.934;4.668;2023-11-21T10:45:42;12.50;99.90
21602;DHT22;10963;50.934;4.668;2023-11-21T10:48:12;12.60;99.90
21602;DHT22;10963;50.934;4.668;2023-11-21T10:50:43;12.70;99.90
21602;DHT22;10963;50.934;4.668;2023-11-21T10:53:09;12.80;99.90
21602;DHT22;10963;50.934;4.668;2023-11-21T10:55:37;12.60;99.90
21602;DHT22;10963;50.934;4.668;2023-11-21T10:58:04;12.50;99.90
21602;DHT22;10963;50.934;4.668;2023-11-21T11:00:31;12.60;99.90
21602;DHT22;10963;50.934;4.668;2023-11-21T11:02:58;12.60;99.90
21602;DHT22;10963;50.934;4.668;2023-11-21T11:05:26;12.50;99.90
21602;DHT22;10963;50.934;4.668;2023-11-21T11:08:05;12.50;99.90
21602;DHT22;10963;50.934;4.668;2023-11-21T11:10:31;12.70;99.90
21602;DHT22;10963;50.934;4.668;2023-11-21T11:12:58;12.60;99.90
21602;DHT22;10963;50.934;4.668;2023-11-21T11:15:25;12.60;99.90
21602;DHT22;10963;50.934;4.668;2023-11-21T11:17:54;12.70;99.90
21602;DHT22;10963;50.934;4.668;2023-11-21T11:20:38;12.70;99.90
21602;DHT22;10963;50.934;4.668;2023-11-21T11:23:34;12.70;99.90
21602;DHT22;10963;50.934;4.668;2023-11-21T11:34:18;12.90;99.90
21602;DHT22;10963;50.934;4.668;2023-11-21T11:39:38;12.70;99.90
21602;DHT22;10963;50.934;4.668;2023-11-21T11:42:11;12.70;99.90
21602;DHT22;10963;50.934;4.668;2023-11-21T11:55:06;13.30;99.90
21602;DHT22;10963;50.934;4.668;2023-11-21T11:57:34;13.20;99.90
21602;DHT22;10963;50.934;4.668;2023-11-21T12:02:57;13.30;99.90
21602;DHT22;10963;50.934;4.668;2023-11-21T12:05:27;13.50;99.90
21602;DHT22;10963;50.934;4.668;2023-11-21T12:08:03;13.50;99.90
21602;DHT22;10963;50.934;4.668;2023-11-21T12:10:37;13.50;99.90
21602;DHT22;10963;50.934;4.668;2023-11-21T12:13:07;13.60;99.90
21602;DHT22;10963;50.934;4.668;2023-11-21T12:15:34;13.60;99.90
21602;DHT22;10963;50.934;4.668;2023-11-21T12:18:00;13.60;99.90
21602;DHT22;10963;50.934;4.668;2023-11-21T12:20:27;13.60;99.90
21602;DHT22;10963;50.934;4.668;2023-11-21T12:22:54;13.60;99.90
21602;DHT22;10963;50.934;4.668;2023-11-21T12:25:25;13.50;99.90
21602;DHT22;10963;50.934;4.668;2023-11-21T12:27:54;13.40;99.90
21602;DHT22;10963;50.934;4.668;2023-11-21T12:30:24;13.50;99.90
21602;DHT22;10963;50.934;4.668;2023-11-21T12:32:54;13.30;99.90
21602;DHT22;10963;50.934;4.668;2023-11-21T12:35:25;13.30;99.90
21602;DHT22;10963;50.934;4.668;2023-11-21T12:37:55;13.20;99.90
21602;DHT22;10963;50.934;4.668;2023-11-21T12:40:23;13.20;99.90
21602;DHT22;10963;50.934;4.668;2023-11-21T12:42:54;13.10;99.90
21602;DHT22;10963;50.934;4.668;2023-11-21T12:45:29;13.00;99.90
21602;DHT22;10963;50.934;4.668;2023-11-21T12:48:01;12.90;99.90
21602;DHT22;10963;50.934;4.668;2023-11-21T12:50:33;12.80;99.90
21602;DHT22;10963;50.934;4.668;2023-11-21T12:53:04;12.80;99.90
21602;DHT22;10963;50.934;4.668;2023-11-21T12:55:34;12.80;99.90
21602;DHT22;10963;50.934;4.668;2023-11-21T12:58:08;12.90;99.90
21602;DHT22;10963;50.934;4.668;2023-11-21T13:00:46;12.90;99.90
21602;DHT22;10963;50.934;4.668;2023-11-21T13:03:16;12.70;99.90
21602;DHT22;10963;50.934;4.668;2023-11-21T13:05:47;12.70;99.90
21602;DHT22;10963;50.934;4.668;2023-11-21T13:08:17;12.60;99.90
21602;DHT22;10963;50.934;4.668;2023-11-21T13:10:46;12.60;99.90
21602;DHT22;10963;50.934;4.668;2023-11-21T13:13:14;12.80;99.90
21602;DHT22;10963;50.934;4.668;2023-11-21T13:15:57;12.80;99.90
21602;DHT22;10963;50.934;4.668;2023-11-21T13:18:29;12.70;99.90
21602;DHT22;10963;50.934;4.668;2023-11-21T13:20:58;12.70;99.90
21602;DHT22;10963;50.934;4.668;2023-11-21T13:23:25;12.70;99.90
21602;DHT22;10963;50.934;4.668;2023-11-21T13:25:56;12.80;99.90
21602;DHT22;10963;50.934;4.668;2023-11-21T13:28:22;13.00;99.90
21602;DHT22;10963;50.934;4.668;2023-11-21T13:30:49;13.00;99.90
21602;DHT22;10963;50.934;4.668;2023-11-21T13:33:18;13.00;99.90
21602;DHT22;10963;50.934;4.668;2023-11-21T13:35:49;12.90;99.90
21602;DHT22;10963;50.934;4.668;2023-11-21T13:38:18;12.80;99.90
21602;DHT22;10963;50.934;4.668;2023-11-21T13:40:49;12.70;99.90
21602;DHT22;10963;50.934;4.668;2023-11-21T13:43:18;12.80;99.90
21602;DHT22;10963;50.934;4.668;2023-11-21T13:45:47;12.70;99.90
21602;DHT22;10963;50.934;4.668;2023-11-21T13:48:13;12.60;99.90
21602;DHT22;10963;50.934;4.668;2023-11-21T13:50:46;12.70;99.90
21602;DHT22;10963;50.934;4.668;2023-11-21T13:53:21;12.70;99.90
21602;DHT22;10963;50.934;4.668;2023-11-21T13:55:55;12.60;99.90
21602;DHT22;10963;50.934;4.668;2023-11-21T13:58:27;12.70;99.90
21602;DHT22;10963;50.934;4.668;2023-11-21T14:01:12;12.60;99.90
21602;DHT22;10963;50.934;4.668;2023-11-21T14:04:05;12.50;99.90
21602;DHT22;10963;50.934;4.668;2023-11-21T14:06:51;12.50;99.90
21602;DHT22;10963;50.934;4.668;2023-11-21T14:09:25;12.70;99.90
21602;DHT22;10963;50.934;4.668;2023-11-21T14:12:01;12.80;99.90
21602;DHT22;10963;50.934;4.668;2023-11-21T14:14:31;12.80;99.90
21602;DHT22;10963;50.934;4.668;2023-11-21T14:16:57;12.70;99.90
21602;DHT22;10963;50.934;4.668;2023-11-21T14:19:24;12.50;99.90
21602;DHT22;10963;50.934;4.668;2023-11-21T14:22:00;12.40;99.90
21602;DHT22;10963;50.934;4.668;2023-11-21T14:24:28;12.30;99.90
21602;DHT22;10963;50.934;4.668;2023-11-21T14:26:54;12.40;99.90
21602;DHT22;10963;50.934;4.668;2023-11-21T14:29:20;12.40;99.90
21602;DHT22;10963;50.934;4.668;2023-11-21T14:31:51;12.40;99.90
21602;DHT22;10963;50.934;4.668;2023-11-21T14:34:21;12.50;99.90
21602;DHT22;10963;50.934;4.668;2023-11-21T14:36:49;12.50;99.90
21602;DHT22;10963;50.934;4.668;2023-11-21T14:39:17;12.40;99.90
21602;DHT22;10963;50.934;4.668;2023-11-21T14:41:53;12.60;99.90
21602;DHT22;10963;50.934;4.668;2023-11-21T14:44:21;12.50;99.90
21602;DHT22;10963;50.934;4.668;2023-11-21T14:46:52;12.50;99.90
21602;DHT22;10963;50.934;4.668;2023-11-21T14:49:21;12.40;99.90
21602;DHT22;10963;50.934;4.668;2023-11-21T14:51:54;12.50;99.90
21602;DHT22;10963;50.934;4.668;2023-11-21T14:54:32;12.60;99.90
21602;DHT22;10963;50.934;4.668;2023-11-21T14:57:13;12.40;99.90
21602;DHT22;10963;50.934;4.668;2023-11-21T14:59:45;12.50;99.90
21602;DHT22;10963;50.934;4.668;2023-11-21T15:02:26;12.50;99.90
21602;DHT22;10963;50.934;4.668;2023-11-21T15:05:10;12.50;99.90
21602;DHT22;10963;50.934;4.668;2023-11-21T15:07:41;12.30;99.90
21602;DHT22;10963;50.934;4.668;2023-11-21T15:10:08;12.20;99.90
21602;DHT22;10963;50.934;4.668;2023-11-21T15:12:42;12.20;99.90
21602;DHT22;10963;50.934;4.668;2023-11-21T15:15:12;12.10;99.90
21602;DHT22;10963;50.934;4.668;2023-11-21T15:17:40;12.20;99.90
21602;DHT22;10963;50.934;4.668;2023-11-21T15:20:10;12.20;99.90
21602;DHT22;10963;50.934;4.668;2023-11-21T15:22:46;12.10;99.90
21602;DHT22;10963;50.934;4.668;2023-11-21T15:25:14;12.10;99.90
21602;DHT22;10963;50.934;4.668;2023-11-21T15:27:40;12.10;99.90
21602;DHT22;10963;50.934;4.668;2023-11-21T15:30:07;12.20;99.90
21602;DHT22;10963;50.934;4.668;2023-11-21T15:32:32;12.40;99.90
21602;DHT22;10963;50.934;4.668;2023-11-21T15:35:01;12.40;99.90
21602;DHT22;10963;50.934;4.668;2023-11-21T15:37:29;12.50;99.90
21602;DHT22;10963;50.934;4.668;2023-11-21T15:39:55;12.40;99.90
21602;DHT22;10963;50.934;4.668;2023-11-21T15:42:23;12.50;99.90
21602;DHT22;10963;50.934;4.668;2023-11-21T15:44:53;12.30;99.90
21602;DHT22;10963;50.934;4.668;2023-11-21T15:47:21;12.20;99.90
21602;DHT22;10963;50.934;4.668;2023-11-21T15:49:50;12.20;99.90
21602;DHT22;10963;50.934;4.668;2023-11-21T15:52:18;12.10;99.90
21602;DHT22;10963;50.934;4.668;2023-11-21T15:54:50;12.00;99.90
21602;DHT22;10963;50.934;4.668;2023-11-21T15:57:18;11.90;99.90
21602;DHT22;10963;50.934;4.668;2023-11-21T15:59:47;11.90;99.90
21602;DHT22;10963;50.934;4.668;2023-11-21T16:02:13;11.90;99.90
21602;DHT22;10963;50.934;4.668;2023-11-21T16:04:41;11.90;99.90
21602;DHT22;10963;50.934;4.668;2023-11-21T16:07:10;11.80;99.90